• Join FlightAware (Why Join?)
  • Login
  • US Flag 
01:19AM EDT


 

Airport Tracker/Info


-or-


 

Live Flight TrackerFlight Track Log ✈ AWE3327 ✈ 04-May-2013 ✈ KDTW - KDCA

Flight Track Log - Related Links

Times and Time Zones

All times are in EDT time to prevent confusion due to time zone crossing. See the AWE3327 flight status page for this flight to view local times or setup timezone preferences in your user account.

Time Position Orientation Groundspeed Altitude Reporting Facility
EDT Latitude Longitude Course Direction KTS MPH feet Rate Location/Type
06:29AM 42.2017 -83.3583 90° East 152 175 1,400  Level Cleveland Center
06:30AM 42.1911 -83.3606 189° South 139 160 2,300 1,800 Climbing Cleveland Center
06:31AM 42.1383 -83.3833 198° South 224 258 3,800 1,980 Climbing Cleveland Center
06:32AM 42.1438 -82.9213 98° East  Level FlightAware Approximate
06:32AM 42.0694 -83.3861 182° South 263 303 6,400  Level Cleveland Center
06:33AM 42.1235 -82.7774 109° East  Level FlightAware Approximate
06:33AM 42.0550 -83.3014 103° East 281 323 9,200  Level Cleveland Center
06:34AM 42.1037 -82.6333 98° East  Level FlightAware Approximate
06:34AM 42.0592 -83.2064 87° East 276 318 10,700  Level Cleveland Center
06:35AM 42.0833 -82.4905 90° East  Level FlightAware Approximate
06:35AM 42.0639 -83.0919 87° East 286 329 13,000  Level Cleveland Center
06:36AM 42.0686 -82.9719 87° East 300 345 15,500 2,220 Climbing Cleveland Center
06:37AM 42.0731 -82.8489 87° East 319 367 17,500 1,740 Climbing Cleveland Center
06:38AM 42.0775 -82.7206 87° East 330 380 19,000 1,560 Climbing Cleveland Center
06:39AM 42.0819 -82.5892 87° East 342 394 20,700 1,680 Climbing Cleveland Center
06:40AM 42.0822 -82.4519 90° East 348 400 22,400 1,560 Climbing Cleveland Center
06:41AM 42.0614 -82.3200 102° East 359 413 23,900 1,500 Climbing Cleveland Center
06:42AM 42.0425 -82.1825 100° East 364 419 25,400 1,440 Climbing Cleveland Center
06:43AM 41.9986 -82.0389 112° Southeast 370 426 26,800 1,380 Climbing Cleveland Center
06:44AM 41.9081 -81.9558 146° Southeast 375 432 28,200 1,320 Climbing Cleveland Center
06:45AM 41.8108 -81.8897 153° Southeast 389 448 29,500 1,140 Climbing Cleveland Center
06:46AM 41.7072 -81.8264 155° Southeast 401 461 30,500 720 Climbing Cleveland Center
06:47AM 41.6058 -81.7633 155° Southeast 408 470 31,000 240 Climbing Cleveland Center
06:48AM 41.5106 -81.7061 156° South 389 448 31,000  Level Cleveland Center
06:49AM 41.4214 -81.6325 148° Southeast 375 432 31,000  Level Cleveland Center
06:50AM 41.3347 -81.5564 147° Southeast 375 432 31,000  Level Cleveland Center
06:51AM 41.2478 -81.4778 146° Southeast 380 437 31,000  Level Cleveland Center
06:52AM 41.1772 -81.4161 147° Southeast 380 437 31,000  Level Cleveland Center
06:53AM 41.0675 -81.3267 148° Southeast 387 445 31,000  Level Cleveland Center
06:54AM 40.9783 -81.2486 147° Southeast 382 440 31,000  Level Cleveland Center
06:55AM 40.8933 -81.1736 146° Southeast 382 440 31,000  Level Cleveland Center
06:56AM 40.8039 -81.0989 148° Southeast 382 440 31,000  Level Cleveland Center
06:57AM 40.7189 -81.0158 143° Southeast 382 440 31,000  Level Cleveland Center
06:58AM 40.6294 -80.9414 148° Southeast 382 440 31,000  Level Cleveland Center
06:59AM 40.5422 -80.8644 146° Southeast 382 440 31,000  Level Cleveland Center
07:00AM 40.4525 -80.7906 148° Southeast 382 440 31,000  Level Cleveland Center
07:01AM 40.3714 -80.7219 147° Southeast 382 440 31,000  Level Cleveland Center
07:02AM 40.2903 -80.6319 140° Southeast 387 445 31,000  Level Cleveland Center
07:03AM 40.2172 -80.5314 134° Southeast 387 445 31,000  Level Cleveland Center
07:04AM 40.1442 -80.4311 134° Southeast 382 440 31,000  Level Cleveland Center
07:05AM 40.0689 -80.3308 134° Southeast 382 440 31,000  Level Cleveland Center
07:06AM 39.9958 -80.2281 133° Southeast 382 440 31,000  Level Cleveland Center
07:07AM 39.9203 -80.1283 135° Southeast 382 440 31,000  Level Cleveland Center
07:09AM 39.7692 -79.9272 134° Southeast 385 443 31,000  Level Washington Center
07:10AM 39.6914 -79.8256 135° Southeast 385 443 31,000  Level Washington Center
07:11AM 39.6178 -79.7242 133° Southeast 390 449 31,000  Level Washington Center
07:12AM 39.5400 -79.6228 135° Southeast 390 449 31,000  Level Washington Center
07:13AM 39.4642 -79.5192 133° Southeast 395 455 31,000  Level Washington Center
07:14AM 39.3883 -79.4208 135° Southeast 395 455 31,000 -600 Level Washington Center
07:15AM 39.3103 -79.3175 134° Southeast 395 455 29,800 -1,680 Descending Washington Center
07:16AM 39.2489 -79.2044 125° Southeast 395 455 27,700 -1,620 Descending Washington Center
07:17AM 39.2322 -79.0617 99° East 391 450 26,600 -1,260 Descending Washington Center
07:18AM 39.2197 -78.9192 96° East 397 457 25,300 -1,800 Descending Washington Center
07:19AM 39.2050 -78.7656 97° East 392 451 23,100 -2,100 Descending Washington Center
07:20AM 39.1897 -78.6311 98° East 387 445 21,100 -1,920 Descending Washington Center
07:21AM 39.1783 -78.5047 97° East 373 429 19,200 -1,800 Descending Washington Center
07:22AM 39.1644 -78.3811 98° East 360 414 17,600 -1,560 Descending Washington Center
07:23AM 39.1403 -78.2625 105° East 346 398 16,200 -1,140 Descending Washington Center
07:24AM 39.1094 -78.1464 109° East 341 392 15,400 -960 Descending Washington Center
07:25AM 39.0783 -78.0303 109° East 341 392 14,300 -1,080 Descending Washington Center
07:26AM 39.0514 -77.9197 107° East 336 387 13,300 -1,200 Descending Washington Center
07:27AM 39.0242 -77.8147 108° East 316 364 11,900 -1,140 Descending Washington Center
07:28AM 39.0008 -77.7231 108° East 310 357 11,100 -600 Descending Washington Center
07:28AM 38.9667 -77.6167 112° Southeast 280 322 10,800 -960 Descending Potomac TRACON
07:29AM 38.9500 -77.5333 104° East 272 313 9,300 -1,380 Descending Potomac TRACON
07:30AM 38.9167 -77.4500 117° Southeast 266 306 8,100 -1,320 Descending Potomac TRACON
07:31AM 38.8833 -77.3667 117° Southeast 258 297 6,900 -1,080 Descending Potomac TRACON
07:32AM 38.8500 -77.3000 123° Southeast 258 297 6,100 -780 Descending Potomac TRACON
07:33AM 38.8167 -77.2167 117° Southeast 251 289 5,400 -1,200 Descending Potomac TRACON
07:34AM 38.7667 -77.1667 142° Southeast 222 255 3,800 -1,680 Descending Potomac TRACON
07:35AM 38.7167 -77.1500 165° South 201 231 2,100 -900 Descending Potomac TRACON
07:36AM 38.7167 -77.1000 90° East 156 180 2,100  Level Potomac TRACON